»·PEaware :: N737GM KSBA-KBUR

N737GM :: KSBA-KBUR

FLIGHT INFORMATION

Flight Status: Arrived
Operator: Privately registered:
United States
More flights under this callsign
Pilot: Edouard Y. (17261)
Aircraft: CESSNA 172 SKYHAWK
(C172)
More flights by this aircraft type
Origin: KSBA Santa Barbara Mun
United States
Destination: KBUR Bob Hope-Burbank
United States
More flights between these airports :: More routes between these airports
Route: +
File this flight plan on PilotEdge
Remarks: Cat 8 rating
Altitude:
(Current/Filed)
7,500ft
Speed:
(Current/Filed)
110kts
Departed: 04-Jan-18 09:51 PM
Arrived: 04-Jan-18 10:35 PM
Distance/Time
Traveled:
75nm/0:44
Distance/Time
To Go:
Arrived

Flight Plot

Page will automatically refresh every two minutes.


Map Options




Map Legend


Flown Route
Filed Route
Departure Airport
Arrival Airport
Navaid (VOR, NDB)
Fix

Horizontal Profiles

Position Reports

Time Latitude Longitude Heading Altitude Ground
Speed
04-Jan-18 21:39 34.432556 -119.835098 72 17ft 0kts
04-Jan-18 21:40 34.432556 -119.835098 72 17ft 0kts
04-Jan-18 21:41 34.432556 -119.835098 72 17ft 0kts
04-Jan-18 21:42 34.432556 -119.835098 72 17ft 0kts
04-Jan-18 21:43 34.432556 -119.835098 72 17ft 0kts
04-Jan-18 21:44 34.432556 -119.835098 72 17ft 0kts
04-Jan-18 21:45 34.432505 -119.834904 151 17ft 4kts
04-Jan-18 21:46 34.431794 -119.836065 252 17ft 8kts
04-Jan-18 21:47 34.430979 -119.838783 247 17ft 2kts
04-Jan-18 21:48 34.430562 -119.838848 218 17ft 0kts
04-Jan-18 21:49 34.430561 -119.838848 217 17ft 0kts
04-Jan-18 21:50 34.430586 -119.839283 287 17ft 6kts
04-Jan-18 21:51 34.430626 -119.839539 271 17ft 1kts
04-Jan-18 21:52 34.430656 -119.839796 264 17ft 0kts
04-Jan-18 21:53 34.430656 -119.839796 264 17ft 0kts
04-Jan-18 21:54 34.430656 -119.839796 264 17ft 0kts
04-Jan-18 21:55 34.430656 -119.839796 264 17ft 0kts
04-Jan-18 21:56 34.430655 -119.839809 262 17ft 1kts
04-Jan-18 21:57 34.421898 -119.835072 159 391ft 79kts
04-Jan-18 21:58 34.403140 -119.818972 153 1280ft 104kts
04-Jan-18 21:59 34.378411 -119.800284 162 1386ft 111kts
04-Jan-18 22:00 34.353123 -119.792030 228 1869ft 81kts
04-Jan-18 22:01 34.365762 -119.786719 84 2844ft 114kts
04-Jan-18 22:02 34.368880 -119.748076 86 3700ft 115kts
04-Jan-18 22:03 34.370500 -119.709988 106 4475ft 116kts
04-Jan-18 22:04 34.366121 -119.672707 103 5252ft 115kts
04-Jan-18 22:05 34.362330 -119.634500 97 5877ft 117kts
04-Jan-18 22:06 34.358457 -119.596038 106 6481ft 120kts
04-Jan-18 22:07 34.354602 -119.562518 117 7357ft 99kts
04-Jan-18 22:08 34.349334 -119.523526 103 7498ft 132kts
04-Jan-18 22:09 34.347354 -119.478493 95 7468ft 137kts
04-Jan-18 22:10 34.341950 -119.434399 107 7500ft 130kts
04-Jan-18 22:11 34.336205 -119.389438 100 7382ft 136kts
04-Jan-18 22:12 34.331699 -119.345455 103 7442ft 132kts
04-Jan-18 22:13 34.328600 -119.301635 107 7485ft 131kts
04-Jan-18 22:14 34.322476 -119.258326 100 7522ft 133kts
04-Jan-18 22:15 34.316524 -119.214921 109 7523ft 133kts
04-Jan-18 22:16 34.307885 -119.172449 107 7448ft 138kts
04-Jan-18 22:17 34.302343 -119.127540 102 7390ft 137kts
04-Jan-18 22:18 34.297592 -119.082640 103 7425ft 130kts
04-Jan-18 22:19 34.292544 -119.039226 109 7497ft 128kts
04-Jan-18 22:20 34.287699 -118.995619 104 7542ft 131kts
04-Jan-18 22:21 34.283185 -118.951597 124 7497ft 131kts
04-Jan-18 22:22 34.273688 -118.908480 111 7458ft 132kts
04-Jan-18 22:23 34.262277 -118.867291 115 7423ft 131kts
04-Jan-18 22:24 34.251764 -118.825000 109 7336ft 136kts
04-Jan-18 22:25 34.244484 -118.781045 112 6970ft 137kts
04-Jan-18 22:26 34.237542 -118.735737 108 6376ft 135kts
04-Jan-18 22:27 34.229534 -118.692171 111 5655ft 138kts
04-Jan-18 22:28 34.220492 -118.654571 116 5118ft 135kts
04-Jan-18 22:29 34.217016 -118.628705 95 4752ft 139kts
04-Jan-18 22:30 34.217483 -118.601182 95 4250ft 139kts
04-Jan-18 22:31 34.216617 -118.572840 100 3755ft 137kts
04-Jan-18 22:32 34.214156 -118.545324 104 3479ft 132kts
04-Jan-18 22:33 34.210693 -118.518864 103 3419ft 133kts
04-Jan-18 22:34 34.208401 -118.492971 104 3309ft 138kts
04-Jan-18 22:35 34.204198 -118.463875 110 2753ft 133kts
04-Jan-18 22:36 34.200787 -118.438078 100 2404ft 129kts
04-Jan-18 22:37 34.199989 -118.415693 104 1995ft 104kts
04-Jan-18 22:38 34.198844 -118.395744 92 1612ft 111kts
04-Jan-18 22:39 34.198538 -118.377833 107 1320ft 72kts
04-Jan-18 22:40 34.197961 -118.363907 94 866ft 73kts
04-Jan-18 22:41 34.197738 -118.354412 98 781ft 1kts
04-Jan-18 22:42 34.197103 -118.350736 256 781ft 0kts

Navigation Log

Ident Type
1. KSBA Airport
2. KBUR Airport